sensor_id;sensor_type;location;lat;lon;timestamp;temperature;humidity
3492;DHT22;1760;52.480;13.422;2022-10-28T00:00:53;15.10;99.90
3492;DHT22;1760;52.480;13.422;2022-10-28T00:03:22;15.20;99.90
3492;DHT22;1760;52.480;13.422;2022-10-28T00:05:49;16.10;99.90
3492;DHT22;1760;52.480;13.422;2022-10-28T00:08:15;14.70;99.90
3492;DHT22;1760;52.480;13.422;2022-10-28T00:10:42;15.00;99.90
3492;DHT22;1760;52.480;13.422;2022-10-28T00:13:09;15.00;99.90
3492;DHT22;1760;52.480;13.422;2022-10-28T00:15:36;15.00;99.90
3492;DHT22;1760;52.480;13.422;2022-10-28T00:18:05;15.30;99.90
3492;DHT22;1760;52.480;13.422;2022-10-28T00:20:33;14.90;99.90
3492;DHT22;1760;52.480;13.422;2022-10-28T00:22:59;14.90;99.90
3492;DHT22;1760;52.480;13.422;2022-10-28T00:27:56;15.10;99.90
3492;DHT22;1760;52.480;13.422;2022-10-28T00:30:25;15.10;99.90
3492;DHT22;1760;52.480;13.422;2022-10-28T00:32:52;15.10;99.90
3492;DHT22;1760;52.480;13.422;2022-10-28T00:35:19;15.20;99.90
3492;DHT22;1760;52.480;13.422;2022-10-28T00:37:47;15.20;99.90
3492;DHT22;1760;52.480;13.422;2022-10-28T00:40:14;15.20;99.90
3492;DHT22;1760;52.480;13.422;2022-10-28T00:42:40;15.20;99.90
3492;DHT22;1760;52.480;13.422;2022-10-28T00:45:08;15.20;99.90
3492;DHT22;1760;52.480;13.422;2022-10-28T00:47:51;15.20;99.90
3492;DHT22;1760;52.480;13.422;2022-10-28T00:50:38;15.20;99.90
3492;DHT22;1760;52.480;13.422;2022-10-28T00:53:13;15.20;99.90
3492;DHT22;1760;52.480;13.422;2022-10-28T00:55:42;15.20;99.90
3492;DHT22;1760;52.480;13.422;2022-10-28T00:58:10;15.30;99.90
3492;DHT22;1760;52.480;13.422;2022-10-28T01:00:37;15.30;99.90
3492;DHT22;1760;52.480;13.422;2022-10-28T01:03:04;15.30;99.90
3492;DHT22;1760;52.480;13.422;2022-10-28T01:05:33;15.60;99.90
3492;DHT22;1760;52.480;13.422;2022-10-28T01:08:04;15.30;99.90
3492;DHT22;1760;52.480;13.422;2022-10-28T01:10:47;15.30;99.90
3492;DHT22;1760;52.480;13.422;2022-10-28T01:13:27;15.10;99.90
3492;DHT22;1760;52.480;13.422;2022-10-28T01:16:03;15.20;99.90
3492;DHT22;1760;52.480;13.422;2022-10-28T01:18:40;15.40;99.90
3492;DHT22;1760;52.480;13.422;2022-10-28T01:24:24;15.50;99.90
3492;DHT22;1760;52.480;13.422;2022-10-28T01:27:18;15.00;99.90
3492;DHT22;1760;52.480;13.422;2022-10-28T01:29:58;15.20;99.90
3492;DHT22;1760;52.480;13.422;2022-10-28T01:32:33;15.10;99.90
3492;DHT22;1760;52.480;13.422;2022-10-28T01:35:11;15.10;99.90
3492;DHT22;1760;52.480;13.422;2022-10-28T01:37:46;15.10;99.90
3492;DHT22;1760;52.480;13.422;2022-10-28T01:40:21;15.00;99.90
3492;DHT22;1760;52.480;13.422;2022-10-28T01:42:54;14.90;99.90
3492;DHT22;1760;52.480;13.422;2022-10-28T01:45:26;14.90;99.90
3492;DHT22;1760;52.480;13.422;2022-10-28T01:47:57;15.20;99.90
3492;DHT22;1760;52.480;13.422;2022-10-28T01:50:30;15.00;99.90
3492;DHT22;1760;52.480;13.422;2022-10-28T01:53:02;14.40;99.90
3492;DHT22;1760;52.480;13.422;2022-10-28T01:55:34;14.90;99.90
3492;DHT22;1760;52.480;13.422;2022-10-28T01:58:03;15.10;99.90
3492;DHT22;1760;52.480;13.422;2022-10-28T02:00:32;15.30;99.90
3492;DHT22;1760;52.480;13.422;2022-10-28T02:03:01;14.80;99.90
3492;DHT22;1760;52.480;13.422;2022-10-28T02:05:38;15.20;99.90
3492;DHT22;1760;52.480;13.422;2022-10-28T02:08:24;14.60;99.90
3492;DHT22;1760;52.480;13.422;2022-10-28T02:11:02;15.00;99.90
3492;DHT22;1760;52.480;13.422;2022-10-28T02:13:41;15.10;99.90
3492;DHT22;1760;52.480;13.422;2022-10-28T02:16:17;15.10;99.90
3492;DHT22;1760;52.480;13.422;2022-10-28T02:18:53;15.10;99.90
3492;DHT22;1760;52.480;13.422;2022-10-28T02:21:27;14.90;99.90
3492;DHT22;1760;52.480;13.422;2022-10-28T02:24:07;14.90;99.90
3492;DHT22;1760;52.480;13.422;2022-10-28T02:26:36;15.00;99.90
3492;DHT22;1760;52.480;13.422;2022-10-28T02:29:10;14.80;99.90
3492;DHT22;1760;52.480;13.422;2022-10-28T02:31:42;14.80;99.90
3492;DHT22;1760;52.480;13.422;2022-10-28T02:36:45;14.90;99.90
3492;DHT22;1760;52.480;13.422;2022-10-28T02:39:16;14.60;99.90
3492;DHT22;1760;52.480;13.422;2022-10-28T02:41:50;15.20;99.90
3492;DHT22;1760;52.480;13.422;2022-10-28T02:44:23;14.80;99.90
3492;DHT22;1760;52.480;13.422;2022-10-28T02:46:54;14.80;99.90
3492;DHT22;1760;52.480;13.422;2022-10-28T02:49:25;14.80;99.90
3492;DHT22;1760;52.480;13.422;2022-10-28T02:51:55;14.90;99.90
3492;DHT22;1760;52.480;13.422;2022-10-28T02:54:25;14.90;99.90
3492;DHT22;1760;52.480;13.422;2022-10-28T02:56:59;14.80;99.90
3492;DHT22;1760;52.480;13.422;2022-10-28T02:59:31;14.80;99.90
3492;DHT22;1760;52.480;13.422;2022-10-28T03:01:57;14.70;99.90
3492;DHT22;1760;52.480;13.422;2022-10-28T03:04:26;14.70;99.90
3492;DHT22;1760;52.480;13.422;2022-10-28T03:06:52;14.70;99.90
3492;DHT22;1760;52.480;13.422;2022-10-28T03:09:19;14.70;99.90
3492;DHT22;1760;52.480;13.422;2022-10-28T03:11:46;14.80;99.90
3492;DHT22;1760;52.480;13.422;2022-10-28T03:14:13;14.80;99.90
3492;DHT22;1760;52.480;13.422;2022-10-28T03:16:40;14.80;99.90
3492;DHT22;1760;52.480;13.422;2022-10-28T03:19:06;14.80;99.90
3492;DHT22;1760;52.480;13.422;2022-10-28T03:21:35;14.70;99.90
3492;DHT22;1760;52.480;13.422;2022-10-28T03:24:01;14.70;99.90
3492;DHT22;1760;52.480;13.422;2022-10-28T03:26:28;14.70;99.90
3492;DHT22;1760;52.480;13.422;2022-10-28T03:28:55;14.60;99.90
3492;DHT22;1760;52.480;13.422;2022-10-28T03:31:22;14.60;99.90
3492;DHT22;1760;52.480;13.422;2022-10-28T03:33:49;14.60;99.90
3492;DHT22;1760;52.480;13.422;2022-10-28T03:36:16;14.60;99.90
3492;DHT22;1760;52.480;13.422;2022-10-28T03:38:44;14.60;99.90
3492;DHT22;1760;52.480;13.422;2022-10-28T03:41:11;14.60;99.90
3492;DHT22;1760;52.480;13.422;2022-10-28T03:43:37;14.60;99.90
3492;DHT22;1760;52.480;13.422;2022-10-28T03:46:04;14.50;99.90
3492;DHT22;1760;52.480;13.422;2022-10-28T03:48:31;14.60;99.90
3492;DHT22;1760;52.480;13.422;2022-10-28T03:50:58;14.60;99.90
3492;DHT22;1760;52.480;13.422;2022-10-28T03:53:25;14.60;99.90
3492;DHT22;1760;52.480;13.422;2022-10-28T03:55:53;14.70;99.90
3492;DHT22;1760;52.480;13.422;2022-10-28T03:58:21;14.60;99.90
3492;DHT22;1760;52.480;13.422;2022-10-28T04:00:48;14.60;99.90
3492;DHT22;1760;52.480;13.422;2022-10-28T04:03:17;14.60;99.90
3492;DHT22;1760;52.480;13.422;2022-10-28T04:05:45;15.20;99.90
3492;DHT22;1760;52.480;13.422;2022-10-28T04:08:14;14.60;99.90
3492;DHT22;1760;52.480;13.422;2022-10-28T04:10:47;14.60;99.90
3492;DHT22;1760;52.480;13.422;2022-10-28T04:13:16;14.60;99.90
3492;DHT22;1760;52.480;13.422;2022-10-28T04:15:43;14.60;99.90
3492;DHT22;1760;52.480;13.422;2022-10-28T04:18:10;14.60;99.90
3492;DHT22;1760;52.480;13.422;2022-10-28T04:20:37;14.60;99.90
3492;DHT22;1760;52.480;13.422;2022-10-28T04:23:04;14.60;99.90
3492;DHT22;1760;52.480;13.422;2022-10-28T04:25:33;14.60;99.90
3492;DHT22;1760;52.480;13.422;2022-10-28T04:28:00;14.60;99.90
3492;DHT22;1760;52.480;13.422;2022-10-28T04:30:28;14.60;99.90
3492;DHT22;1760;52.480;13.422;2022-10-28T04:32:55;14.60;99.90
3492;DHT22;1760;52.480;13.422;2022-10-28T04:35:22;14.60;99.90
3492;DHT22;1760;52.480;13.422;2022-10-28T04:37:49;14.50;99.90
3492;DHT22;1760;52.480;13.422;2022-10-28T04:40:16;14.50;99.90
3492;DHT22;1760;52.480;13.422;2022-10-28T04:42:43;14.50;99.90
3492;DHT22;1760;52.480;13.422;2022-10-28T04:45:10;14.50;99.90
3492;DHT22;1760;52.480;13.422;2022-10-28T04:47:38;14.50;99.90
3492;DHT22;1760;52.480;13.422;2022-10-28T04:50:07;14.50;99.90
3492;DHT22;1760;52.480;13.422;2022-10-28T04:52:35;14.50;99.90
3492;DHT22;1760;52.480;13.422;2022-10-28T04:55:01;14.50;99.90
3492;DHT22;1760;52.480;13.422;2022-10-28T04:57:28;14.50;99.90
3492;DHT22;1760;52.480;13.422;2022-10-28T04:59:56;14.50;99.90
3492;DHT22;1760;52.480;13.422;2022-10-28T05:02:23;14.50;99.90
3492;DHT22;1760;52.480;13.422;2022-10-28T05:04:54;14.50;99.90
3492;DHT22;1760;52.480;13.422;2022-10-28T05:07:25;14.40;99.90
3492;DHT22;1760;52.480;13.422;2022-10-28T05:09:51;14.40;99.90
3492;DHT22;1760;52.480;13.422;2022-10-28T05:12:18;14.40;99.90
3492;DHT22;1760;52.480;13.422;2022-10-28T05:14:45;14.40;99.90
3492;DHT22;1760;52.480;13.422;2022-10-28T05:17:12;14.40;99.90
3492;DHT22;1760;52.480;13.422;2022-10-28T05:19:39;14.40;99.90
3492;DHT22;1760;52.480;13.422;2022-10-28T05:22:07;14.40;99.90
3492;DHT22;1760;52.480;13.422;2022-10-28T05:24:34;14.40;99.90
3492;DHT22;1760;52.480;13.422;2022-10-28T05:27:01;14.40;99.90
3492;DHT22;1760;52.480;13.422;2022-10-28T05:29:28;14.40;99.90
3492;DHT22;1760;52.480;13.422;2022-10-28T05:31:55;14.40;99.90
3492;DHT22;1760;52.480;13.422;2022-10-28T05:34:22;14.40;99.90
3492;DHT22;1760;52.480;13.422;2022-10-28T05:36:49;15.70;99.90
3492;DHT22;1760;52.480;13.422;2022-10-28T05:39:17;14.30;99.90
3492;DHT22;1760;52.480;13.422;2022-10-28T05:41:44;14.30;99.90
3492;DHT22;1760;52.480;13.422;2022-10-28T05:44:10;14.40;99.90
3492;DHT22;1760;52.480;13.422;2022-10-28T05:46:37;14.30;99.90
3492;DHT22;1760;52.480;13.422;2022-10-28T05:49:04;14.40;99.90
3492;DHT22;1760;52.480;13.422;2022-10-28T05:51:47;14.40;99.90
3492;DHT22;1760;52.480;13.422;2022-10-28T05:54:13;14.40;99.90
3492;DHT22;1760;52.480;13.422;2022-10-28T05:56:42;14.40;99.90
3492;DHT22;1760;52.480;13.422;2022-10-28T05:59:08;14.40;99.90
3492;DHT22;1760;52.480;13.422;2022-10-28T06:01:35;14.40;99.90
3492;DHT22;1760;52.480;13.422;2022-10-28T06:04:02;14.50;99.90
3492;DHT22;1760;52.480;13.422;2022-10-28T06:06:29;14.50;99.90
3492;DHT22;1760;52.480;13.422;2022-10-28T06:08:56;14.50;99.90
3492;DHT22;1760;52.480;13.422;2022-10-28T06:11:26;14.50;99.90
3492;DHT22;1760;52.480;13.422;2022-10-28T06:13:54;14.50;99.90
3492;DHT22;1760;52.480;13.422;2022-10-28T06:16:21;14.60;99.90
3492;DHT22;1760;52.480;13.422;2022-10-28T06:18:47;14.60;99.90
3492;DHT22;1760;52.480;13.422;2022-10-28T06:21:14;14.70;99.90
3492;DHT22;1760;52.480;13.422;2022-10-28T06:23:41;14.70;99.90
3492;DHT22;1760;52.480;13.422;2022-10-28T06:26:08;14.70;99.90
3492;DHT22;1760;52.480;13.422;2022-10-28T06:28:35;14.70;99.90
3492;DHT22;1760;52.480;13.422;2022-10-28T06:31:05;14.70;99.90
3492;DHT22;1760;52.480;13.422;2022-10-28T06:33:32;14.70;99.90
3492;DHT22;1760;52.480;13.422;2022-10-28T06:36:00;14.70;99.90
3492;DHT22;1760;52.480;13.422;2022-10-28T06:38:27;14.70;99.90
3492;DHT22;1760;52.480;13.422;2022-10-28T06:40:56;14.70;99.90
3492;DHT22;1760;52.480;13.422;2022-10-28T06:43:23;14.70;99.90
3492;DHT22;1760;52.480;13.422;2022-10-28T06:45:50;14.80;99.90
3492;DHT22;1760;52.480;13.422;2022-10-28T06:48:24;14.70;99.90
3492;DHT22;1760;52.480;13.422;2022-10-28T06:50:54;14.70;99.90
3492;DHT22;1760;52.480;13.422;2022-10-28T06:53:20;14.70;99.90
3492;DHT22;1760;52.480;13.422;2022-10-28T06:55:51;14.80;99.90
3492;DHT22;1760;52.480;13.422;2022-10-28T06:58:18;14.80;99.90
3492;DHT22;1760;52.480;13.422;2022-10-28T07:00:45;14.90;99.90
3492;DHT22;1760;52.480;13.422;2022-10-28T07:03:12;14.90;99.90
3492;DHT22;1760;52.480;13.422;2022-10-28T07:05:40;14.90;99.90
3492;DHT22;1760;52.480;13.422;2022-10-28T07:08:07;14.90;99.90
3492;DHT22;1760;52.480;13.422;2022-10-28T07:10:33;14.90;99.90
3492;DHT22;1760;52.480;13.422;2022-10-28T07:13:00;15.00;99.90
3492;DHT22;1760;52.480;13.422;2022-10-28T07:15:27;15.00;99.90
3492;DHT22;1760;52.480;13.422;2022-10-28T07:17:55;15.00;99.90
3492;DHT22;1760;52.480;13.422;2022-10-28T07:20:23;15.10;99.90
3492;DHT22;1760;52.480;13.422;2022-10-28T07:22:56;15.10;99.90
3492;DHT22;1760;52.480;13.422;2022-10-28T07:25:22;15.10;99.90
3492;DHT22;1760;52.480;13.422;2022-10-28T07:27:49;15.20;99.90
3492;DHT22;1760;52.480;13.422;2022-10-28T07:30:16;15.30;99.90
3492;DHT22;1760;52.480;13.422;2022-10-28T07:32:45;15.30;99.90
3492;DHT22;1760;52.480;13.422;2022-10-28T07:35:11;15.40;99.90
3492;DHT22;1760;52.480;13.422;2022-10-28T07:37:38;15.40;99.90
3492;DHT22;1760;52.480;13.422;2022-10-28T07:40:07;15.40;99.90
3492;DHT22;1760;52.480;13.422;2022-10-28T07:42:34;15.50;99.90
3492;DHT22;1760;52.480;13.422;2022-10-28T07:45:01;15.60;99.90
3492;DHT22;1760;52.480;13.422;2022-10-28T07:47:28;15.70;99.90
3492;DHT22;1760;52.480;13.422;2022-10-28T07:49:55;15.80;99.90
3492;DHT22;1760;52.480;13.422;2022-10-28T07:52:22;15.80;99.90
3492;DHT22;1760;52.480;13.422;2022-10-28T07:54:51;15.90;99.90
3492;DHT22;1760;52.480;13.422;2022-10-28T07:57:19;16.00;99.90
3492;DHT22;1760;52.480;13.422;2022-10-28T07:59:46;16.10;99.90
3492;DHT22;1760;52.480;13.422;2022-10-28T08:02:16;16.20;99.90
3492;DHT22;1760;52.480;13.422;2022-10-28T08:04:43;16.30;99.90
3492;DHT22;1760;52.480;13.422;2022-10-28T08:07:10;16.30;99.90
3492;DHT22;1760;52.480;13.422;2022-10-28T08:09:37;16.30;99.90
3492;DHT22;1760;52.480;13.422;2022-10-28T08:12:04;16.40;99.90
3492;DHT22;1760;52.480;13.422;2022-10-28T08:14:33;16.60;99.90
3492;DHT22;1760;52.480;13.422;2022-10-28T08:17:00;16.80;99.90
3492;DHT22;1760;52.480;13.422;2022-10-28T08:19:27;16.90;99.90
3492;DHT22;1760;52.480;13.422;2022-10-28T08:21:54;17.10;99.90
3492;DHT22;1760;52.480;13.422;2022-10-28T08:24:21;17.20;99.90
3492;DHT22;1760;52.480;13.422;2022-10-28T08:26:48;17.20;99.90
3492;DHT22;1760;52.480;13.422;2022-10-28T08:29:14;17.30;99.90
3492;DHT22;1760;52.480;13.422;2022-10-28T08:31:43;17.30;99.90
3492;DHT22;1760;52.480;13.422;2022-10-28T08:34:09;17.40;99.90
3492;DHT22;1760;52.480;13.422;2022-10-28T08:36:36;17.50;99.90
3492;DHT22;1760;52.480;13.422;2022-10-28T08:39:03;17.70;99.90
3492;DHT22;1760;52.480;13.422;2022-10-28T08:41:37;17.80;99.90
3492;DHT22;1760;52.480;13.422;2022-10-28T08:44:30;17.90;99.90
3492;DHT22;1760;52.480;13.422;2022-10-28T08:47:11;18.00;99.90
3492;DHT22;1760;52.480;13.422;2022-10-28T08:49:41;18.10;99.90
3492;DHT22;1760;52.480;13.422;2022-10-28T08:52:15;18.00;99.90
3492;DHT22;1760;52.480;13.422;2022-10-28T08:54:49;18.00;99.90
3492;DHT22;1760;52.480;13.422;2022-10-28T08:57:20;18.00;99.90
3492;DHT22;1760;52.480;13.422;2022-10-28T08:59:49;18.10;99.90
3492;DHT22;1760;52.480;13.422;2022-10-28T09:02:20;18.20;99.90
3492;DHT22;1760;52.480;13.422;2022-10-28T09:04:53;18.30;99.90
3492;DHT22;1760;52.480;13.422;2022-10-28T09:07:23;18.40;99.90
3492;DHT22;1760;52.480;13.422;2022-10-28T09:09:51;18.50;99.90
3492;DHT22;1760;52.480;13.422;2022-10-28T09:12:28;18.70;99.90
3492;DHT22;1760;52.480;13.422;2022-10-28T09:15:10;18.90;99.90
3492;DHT22;1760;52.480;13.422;2022-10-28T09:17:49;19.00;99.90
3492;DHT22;1760;52.480;13.422;2022-10-28T09:20:19;19.00;99.90
3492;DHT22;1760;52.480;13.422;2022-10-28T09:22:54;19.00;99.90
3492;DHT22;1760;52.480;13.422;2022-10-28T09:25:27;19.30;99.90
3492;DHT22;1760;52.480;13.422;2022-10-28T09:28:05;19.90;99.90
3492;DHT22;1760;52.480;13.422;2022-10-28T09:30:44;21.10;99.90
3492;DHT22;1760;52.480;13.422;2022-10-28T09:36:13;23.70;99.90
3492;DHT22;1760;52.480;13.422;2022-10-28T09:38:43;24.80;99.90
3492;DHT22;1760;52.480;13.422;2022-10-28T09:41:14;25.60;99.90
3492;DHT22;1760;52.480;13.422;2022-10-28T09:43:49;26.30;99.90
3492;DHT22;1760;52.480;13.422;2022-10-28T09:46:18;27.00;99.90
3492;DHT22;1760;52.480;13.422;2022-10-28T09:48:47;27.40;99.90
3492;DHT22;1760;52.480;13.422;2022-10-28T09:51:23;27.90;99.90
3492;DHT22;1760;52.480;13.422;2022-10-28T09:53:56;28.20;99.90
3492;DHT22;1760;52.480;13.422;2022-10-28T09:56:23;28.30;98.20
3492;DHT22;1760;52.480;13.422;2022-10-28T09:58:56;28.40;97.60
3492;DHT22;1760;52.480;13.422;2022-10-28T10:01:28;28.80;96.50
3492;DHT22;1760;52.480;13.422;2022-10-28T10:03:58;29.00;94.90
3492;DHT22;1760;52.480;13.422;2022-10-28T10:06:30;29.20;93.60
3492;DHT22;1760;52.480;13.422;2022-10-28T10:08:58;29.50;92.60
3492;DHT22;1760;52.480;13.422;2022-10-28T10:11:29;29.50;92.10
3492;DHT22;1760;52.480;13.422;2022-10-28T10:14:04;29.50;91.00
3492;DHT22;1760;52.480;13.422;2022-10-28T10:16:37;28.80;91.30
3492;DHT22;1760;52.480;13.422;2022-10-28T10:19:07;28.00;93.10
3492;DHT22;1760;52.480;13.422;2022-10-28T10:21:43;27.80;94.00
3492;DHT22;1760;52.480;13.422;2022-10-28T10:24:31;27.70;94.80
3492;DHT22;1760;52.480;13.422;2022-10-28T10:27:01;28.10;94.10
3492;DHT22;1760;52.480;13.422;2022-10-28T10:29:30;28.30;93.50
3492;DHT22;1760;52.480;13.422;2022-10-28T10:32:07;28.30;93.30
3492;DHT22;1760;52.480;13.422;2022-10-28T10:34:35;28.20;93.50
3492;DHT22;1760;52.480;13.422;2022-10-28T10:37:02;28.10;93.70
3492;DHT22;1760;52.480;13.422;2022-10-28T10:39:34;28.00;94.10
3492;DHT22;1760;52.480;13.422;2022-10-28T10:42:01;28.00;94.00
3492;DHT22;1760;52.480;13.422;2022-10-28T10:44:33;28.10;94.00
3492;DHT22;1760;52.480;13.422;2022-10-28T10:47:19;28.10;94.50
3492;DHT22;1760;52.480;13.422;2022-10-28T10:49:48;27.90;93.70
3492;DHT22;1760;52.480;13.422;2022-10-28T10:52:19;27.50;94.70
3492;DHT22;1760;52.480;13.422;2022-10-28T10:54:59;27.30;95.50
3492;DHT22;1760;52.480;13.422;2022-10-28T10:57:30;27.20;95.80
3492;DHT22;1760;52.480;13.422;2022-10-28T11:00:00;26.90;96.90
3492;DHT22;1760;52.480;13.422;2022-10-28T11:02:29;26.50;97.20
3492;DHT22;1760;52.480;13.422;2022-10-28T11:05:03;25.90;99.10
3492;DHT22;1760;52.480;13.422;2022-10-28T11:07:31;25.60;99.90
3492;DHT22;1760;52.480;13.422;2022-10-28T11:10:00;25.10;99.90
3492;DHT22;1760;52.480;13.422;2022-10-28T11:12:28;24.90;99.90
3492;DHT22;1760;52.480;13.422;2022-10-28T11:14:58;24.60;99.90
3492;DHT22;1760;52.480;13.422;2022-10-28T11:17:26;24.30;99.90
3492;DHT22;1760;52.480;13.422;2022-10-28T11:19:55;24.10;99.90
3492;DHT22;1760;52.480;13.422;2022-10-28T11:22:42;24.00;99.90
3492;DHT22;1760;52.480;13.422;2022-10-28T11:25:31;23.90;99.90
3492;DHT22;1760;52.480;13.422;2022-10-28T11:28:26;23.80;99.90
3492;DHT22;1760;52.480;13.422;2022-10-28T11:33:57;23.60;99.90
3492;DHT22;1760;52.480;13.422;2022-10-28T11:36:37;23.40;99.90
3492;DHT22;1760;52.480;13.422;2022-10-28T11:39:28;23.30;99.90
3492;DHT22;1760;52.480;13.422;2022-10-28T11:42:11;23.30;99.90
3492;DHT22;1760;52.480;13.422;2022-10-28T11:44:47;23.30;99.90
3492;DHT22;1760;52.480;13.422;2022-10-28T11:47:31;23.40;99.90
3492;DHT22;1760;52.480;13.422;2022-10-28T11:50:29;23.40;99.90
3492;DHT22;1760;52.480;13.422;2022-10-28T11:53:24;23.30;99.90
3492;DHT22;1760;52.480;13.422;2022-10-28T11:56:00;23.40;99.90
3492;DHT22;1760;52.480;13.422;2022-10-28T11:58:41;23.50;99.90
3492;DHT22;1760;52.480;13.422;2022-10-28T12:01:19;23.50;99.90
3492;DHT22;1760;52.480;13.422;2022-10-28T12:04:02;23.50;99.90
3492;DHT22;1760;52.480;13.422;2022-10-28T12:06:49;23.50;99.90
3492;DHT22;1760;52.480;13.422;2022-10-28T12:09:24;23.50;99.90
3492;DHT22;1760;52.480;13.422;2022-10-28T12:12:13;23.30;99.90
3492;DHT22;1760;52.480;13.422;2022-10-28T12:14:47;23.30;99.90
3492;DHT22;1760;52.480;13.422;2022-10-28T12:17:21;23.30;99.90
3492;DHT22;1760;52.480;13.422;2022-10-28T12:19:57;23.30;99.90
3492;DHT22;1760;52.480;13.422;2022-10-28T12:22:30;23.50;99.90
3492;DHT22;1760;52.480;13.422;2022-10-28T12:25:07;23.60;99.90
3492;DHT22;1760;52.480;13.422;2022-10-28T12:27:47;23.80;99.90
3492;DHT22;1760;52.480;13.422;2022-10-28T12:30:18;23.90;99.90
3492;DHT22;1760;52.480;13.422;2022-10-28T12:32:49;24.10;99.90
3492;DHT22;1760;52.480;13.422;2022-10-28T12:35:22;24.10;99.90
3492;DHT22;1760;52.480;13.422;2022-10-28T12:37:52;24.10;99.90
3492;DHT22;1760;52.480;13.422;2022-10-28T12:40:25;24.10;99.90
3492;DHT22;1760;52.480;13.422;2022-10-28T12:42:57;24.10;99.90
3492;DHT22;1760;52.480;13.422;2022-10-28T12:45:25;24.20;99.90
3492;DHT22;1760;52.480;13.422;2022-10-28T12:47:57;24.20;99.90
3492;DHT22;1760;52.480;13.422;2022-10-28T12:50:29;24.10;99.90
3492;DHT22;1760;52.480;13.422;2022-10-28T12:53:17;24.10;99.90
3492;DHT22;1760;52.480;13.422;2022-10-28T12:55:50;24.00;99.90
3492;DHT22;1760;52.480;13.422;2022-10-28T12:58:24;24.00;99.90
3492;DHT22;1760;52.480;13.422;2022-10-28T13:00:54;24.00;99.90
3492;DHT22;1760;52.480;13.422;2022-10-28T13:03:22;24.00;99.90
3492;DHT22;1760;52.480;13.422;2022-10-28T13:05:52;24.00;99.90
3492;DHT22;1760;52.480;13.422;2022-10-28T13:08:52;23.90;99.90
3492;DHT22;1760;52.480;13.422;2022-10-28T13:11:54;23.90;99.90
3492;DHT22;1760;52.480;13.422;2022-10-28T13:17:27;23.90;99.90
3492;DHT22;1760;52.480;13.422;2022-10-28T13:20:13;24.00;99.90
3492;DHT22;1760;52.480;13.422;2022-10-28T13:22:51;24.00;99.90
3492;DHT22;1760;52.480;13.422;2022-10-28T13:25:36;23.80;99.90
3492;DHT22;1760;52.480;13.422;2022-10-28T13:28:11;23.80;99.90
3492;DHT22;1760;52.480;13.422;2022-10-28T13:30:53;23.80;99.90
3492;DHT22;1760;52.480;13.422;2022-10-28T13:33:23;23.80;99.90
3492;DHT22;1760;52.480;13.422;2022-10-28T13:35:50;23.90;99.90
3492;DHT22;1760;52.480;13.422;2022-10-28T13:38:24;23.90;99.90
3492;DHT22;1760;52.480;13.422;2022-10-28T13:41:32;23.80;99.90
3492;DHT22;1760;52.480;13.422;2022-10-28T13:44:25;23.70;99.90
3492;DHT22;1760;52.480;13.422;2022-10-28T13:56:21;23.40;99.90
3492;DHT22;1760;52.480;13.422;2022-10-28T13:58:54;23.30;99.90
3492;DHT22;1760;52.480;13.422;2022-10-28T14:01:54;23.30;99.90
3492;DHT22;1760;52.480;13.422;2022-10-28T14:04:26;23.30;99.90
3492;DHT22;1760;52.480;13.422;2022-10-28T14:07:18;23.20;99.90
3492;DHT22;1760;52.480;13.422;2022-10-28T14:09:49;23.20;99.90
3492;DHT22;1760;52.480;13.422;2022-10-28T14:12:22;23.10;99.90
3492;DHT22;1760;52.480;13.422;2022-10-28T14:15:02;23.00;99.90
3492;DHT22;1760;52.480;13.422;2022-10-28T14:17:35;22.90;99.90
3492;DHT22;1760;52.480;13.422;2022-10-28T14:20:06;22.80;99.90
3492;DHT22;1760;52.480;13.422;2022-10-28T14:22:35;22.80;99.90
3492;DHT22;1760;52.480;13.422;2022-10-28T14:31:31;22.70;99.90
3492;DHT22;1760;52.480;13.422;2022-10-28T14:34:38;22.60;99.90
3492;DHT22;1760;52.480;13.422;2022-10-28T14:40:23;22.50;99.90
3492;DHT22;1760;52.480;13.422;2022-10-28T14:43:00;22.50;99.90
3492;DHT22;1760;52.480;13.422;2022-10-28T14:45:36;22.50;99.90
3492;DHT22;1760;52.480;13.422;2022-10-28T14:48:34;22.40;99.90
3492;DHT22;1760;52.480;13.422;2022-10-28T14:51:08;22.40;99.90
3492;DHT22;1760;52.480;13.422;2022-10-28T14:53:40;22.40;99.90
3492;DHT22;1760;52.480;13.422;2022-10-28T14:56:11;22.30;99.90
3492;DHT22;1760;52.480;13.422;2022-10-28T14:58:43;22.30;99.90
3492;DHT22;1760;52.480;13.422;2022-10-28T15:01:20;22.20;99.90
3492;DHT22;1760;52.480;13.422;2022-10-28T15:03:50;22.20;99.90
3492;DHT22;1760;52.480;13.422;2022-10-28T15:06:25;22.10;99.90
3492;DHT22;1760;52.480;13.422;2022-10-28T15:08:53;22.10;99.90
3492;DHT22;1760;52.480;13.422;2022-10-28T15:11:20;22.00;99.90
3492;DHT22;1760;52.480;13.422;2022-10-28T15:13:50;21.90;99.90
3492;DHT22;1760;52.480;13.422;2022-10-28T15:16:21;21.90;99.90
3492;DHT22;1760;52.480;13.422;2022-10-28T15:18:51;21.80;99.90
3492;DHT22;1760;52.480;13.422;2022-10-28T15:21:20;21.80;99.90
3492;DHT22;1760;52.480;13.422;2022-10-28T15:23:58;21.80;99.90
3492;DHT22;1760;52.480;13.422;2022-10-28T15:26:25;21.70;99.90
3492;DHT22;1760;52.480;13.422;2022-10-28T15:28:52;21.60;99.90
3492;DHT22;1760;52.480;13.422;2022-10-28T15:31:20;21.50;99.90
3492;DHT22;1760;52.480;13.422;2022-10-28T15:33:47;21.50;99.90
3492;DHT22;1760;52.480;13.422;2022-10-28T15:36:17;21.50;99.90
3492;DHT22;1760;52.480;13.422;2022-10-28T15:38:45;21.50;99.90
3492;DHT22;1760;52.480;13.422;2022-10-28T15:41:38;21.40;99.90
3492;DHT22;1760;52.480;13.422;2022-10-28T15:44:22;21.40;99.90
3492;DHT22;1760;52.480;13.422;2022-10-28T15:46:50;21.30;99.90
3492;DHT22;1760;52.480;13.422;2022-10-28T15:49:34;21.20;99.90
3492;DHT22;1760;52.480;13.422;2022-10-28T15:52:29;21.20;99.90
3492;DHT22;1760;52.480;13.422;2022-10-28T15:54:59;21.20;99.90
3492;DHT22;1760;52.480;13.422;2022-10-28T15:57:28;21.10;99.90
3492;DHT22;1760;52.480;13.422;2022-10-28T16:00:18;21.00;99.90
3492;DHT22;1760;52.480;13.422;2022-10-28T16:02:49;21.00;99.90
3492;DHT22;1760;52.480;13.422;2022-10-28T16:05:45;21.00;99.90
3492;DHT22;1760;52.480;13.422;2022-10-28T16:08:21;20.90;99.90
3492;DHT22;1760;52.480;13.422;2022-10-28T16:10:53;20.90;99.90
3492;DHT22;1760;52.480;13.422;2022-10-28T16:13:26;20.90;99.90
3492;DHT22;1760;52.480;13.422;2022-10-28T16:16:03;20.80;99.90
3492;DHT22;1760;52.480;13.422;2022-10-28T16:18:33;20.80;99.90
3492;DHT22;1760;52.480;13.422;2022-10-28T16:21:04;20.70;99.90
3492;DHT22;1760;52.480;13.422;2022-10-28T16:23:37;20.70;99.90
3492;DHT22;1760;52.480;13.422;2022-10-28T16:26:05;20.70;99.90
3492;DHT22;1760;52.480;13.422;2022-10-28T16:28:32;20.70;99.90
3492;DHT22;1760;52.480;13.422;2022-10-28T16:31:00;20.60;99.90
3492;DHT22;1760;52.480;13.422;2022-10-28T16:33:29;20.60;99.90
3492;DHT22;1760;52.480;13.422;2022-10-28T16:35:57;20.60;99.90
3492;DHT22;1760;52.480;13.422;2022-10-28T16:38:24;20.50;99.90
3492;DHT22;1760;52.480;13.422;2022-10-28T16:40:52;20.50;99.90
3492;DHT22;1760;52.480;13.422;2022-10-28T16:43:21;20.50;99.90
3492;DHT22;1760;52.480;13.422;2022-10-28T16:45:49;20.50;99.90
3492;DHT22;1760;52.480;13.422;2022-10-28T16:48:17;20.40;99.90
3492;DHT22;1760;52.480;13.422;2022-10-28T16:50:48;20.40;99.90